sensor_id;sensor_type;location;lat;lon;timestamp;P1;durP1;ratioP1;P2;durP2;ratioP2
1204;SDS011;592;48.764;9.174;2022-12-19T00:00:44;51.03;;;23.90;;
1204;SDS011;592;48.764;9.174;2022-12-19T00:03:11;46.20;;;23.60;;
1204;SDS011;592;48.764;9.174;2022-12-19T00:05:39;47.73;;;24.80;;
1204;SDS011;592;48.764;9.174;2022-12-19T00:08:12;53.40;;;25.80;;
1204;SDS011;592;48.764;9.174;2022-12-19T00:10:41;48.17;;;26.43;;
1204;SDS011;592;48.764;9.174;2022-12-19T00:13:08;46.67;;;24.67;;
1204;SDS011;592;48.764;9.174;2022-12-19T00:15:35;53.20;;;26.57;;
1204;SDS011;592;48.764;9.174;2022-12-19T00:18:02;50.03;;;24.33;;
1204;SDS011;592;48.764;9.174;2022-12-19T00:20:29;52.13;;;26.23;;
1204;SDS011;592;48.764;9.174;2022-12-19T00:22:57;46.37;;;24.93;;
1204;SDS011;592;48.764;9.174;2022-12-19T00:25:24;51.17;;;25.20;;
1204;SDS011;592;48.764;9.174;2022-12-19T00:27:51;48.10;;;24.73;;
1204;SDS011;592;48.764;9.174;2022-12-19T00:30:17;45.23;;;24.43;;
1204;SDS011;592;48.764;9.174;2022-12-19T00:32:44;43.47;;;24.13;;
1204;SDS011;592;48.764;9.174;2022-12-19T00:35:11;48.10;;;25.20;;
1204;SDS011;592;48.764;9.174;2022-12-19T00:37:39;42.13;;;23.90;;
1204;SDS011;592;48.764;9.174;2022-12-19T00:40:07;53.50;;;23.40;;
1204;SDS011;592;48.764;9.174;2022-12-19T00:42:35;50.23;;;24.90;;
1204;SDS011;592;48.764;9.174;2022-12-19T00:45:03;42.40;;;24.73;;
1204;SDS011;592;48.764;9.174;2022-12-19T00:47:30;51.13;;;24.40;;
1204;SDS011;592;48.764;9.174;2022-12-19T00:49:57;46.43;;;24.83;;
1204;SDS011;592;48.764;9.174;2022-12-19T00:52:23;43.17;;;24.40;;
1204;SDS011;592;48.764;9.174;2022-12-19T00:54:50;46.93;;;24.33;;
1204;SDS011;592;48.764;9.174;2022-12-19T00:57:18;44.10;;;23.10;;
1204;SDS011;592;48.764;9.174;2022-12-19T00:59:45;47.30;;;22.03;;
1204;SDS011;592;48.764;9.174;2022-12-19T01:02:12;49.77;;;25.17;;
1204;SDS011;592;48.764;9.174;2022-12-19T01:04:38;47.40;;;23.73;;
1204;SDS011;592;48.764;9.174;2022-12-19T01:07:05;48.63;;;24.70;;
1204;SDS011;592;48.764;9.174;2022-12-19T01:09:32;52.60;;;25.63;;
1204;SDS011;592;48.764;9.174;2022-12-19T01:12:00;46.83;;;24.60;;
1204;SDS011;592;48.764;9.174;2022-12-19T01:14:46;48.20;;;23.83;;
1204;SDS011;592;48.764;9.174;2022-12-19T01:17:13;47.40;;;24.00;;
1204;SDS011;592;48.764;9.174;2022-12-19T01:19:39;46.50;;;23.33;;
1204;SDS011;592;48.764;9.174;2022-12-19T01:22:06;46.30;;;23.87;;
1204;SDS011;592;48.764;9.174;2022-12-19T01:24:33;47.03;;;23.70;;
1204;SDS011;592;48.764;9.174;2022-12-19T01:27:00;50.63;;;24.70;;
1204;SDS011;592;48.764;9.174;2022-12-19T01:29:26;44.90;;;25.00;;
1204;SDS011;592;48.764;9.174;2022-12-19T01:31:54;49.33;;;25.33;;
1204;SDS011;592;48.764;9.174;2022-12-19T01:34:21;47.37;;;24.73;;
1204;SDS011;592;48.764;9.174;2022-12-19T01:36:48;48.40;;;23.97;;
1204;SDS011;592;48.764;9.174;2022-12-19T01:39:15;46.10;;;23.80;;
1204;SDS011;592;48.764;9.174;2022-12-19T01:41:41;46.67;;;24.43;;
1204;SDS011;592;48.764;9.174;2022-12-19T01:44:08;45.53;;;24.23;;
1204;SDS011;592;48.764;9.174;2022-12-19T01:46:36;50.00;;;24.37;;
1204;SDS011;592;48.764;9.174;2022-12-19T01:49:10;45.87;;;23.97;;
1204;SDS011;592;48.764;9.174;2022-12-19T01:51:42;47.97;;;24.07;;
1204;SDS011;592;48.764;9.174;2022-12-19T01:54:12;41.87;;;24.27;;
1204;SDS011;592;48.764;9.174;2022-12-19T01:56:45;47.73;;;23.83;;
1204;SDS011;592;48.764;9.174;2022-12-19T01:59:15;49.60;;;23.00;;
1204;SDS011;592;48.764;9.174;2022-12-19T02:01:44;47.30;;;23.83;;
1204;SDS011;592;48.764;9.174;2022-12-19T02:04:13;43.17;;;22.20;;
1204;SDS011;592;48.764;9.174;2022-12-19T02:06:40;47.20;;;25.47;;
1204;SDS011;592;48.764;9.174;2022-12-19T02:09:07;44.37;;;23.23;;
1204;SDS011;592;48.764;9.174;2022-12-19T02:11:36;47.60;;;23.60;;
1204;SDS011;592;48.764;9.174;2022-12-19T02:14:03;43.17;;;23.33;;
1204;SDS011;592;48.764;9.174;2022-12-19T02:16:33;47.63;;;23.37;;
1204;SDS011;592;48.764;9.174;2022-12-19T02:19:10;51.30;;;26.33;;
1204;SDS011;592;48.764;9.174;2022-12-19T02:21:54;46.50;;;23.57;;
1204;SDS011;592;48.764;9.174;2022-12-19T02:24:46;47.93;;;24.40;;
1204;SDS011;592;48.764;9.174;2022-12-19T02:27:40;48.00;;;24.37;;
1204;SDS011;592;48.764;9.174;2022-12-19T02:30:37;47.50;;;25.23;;
1204;SDS011;592;48.764;9.174;2022-12-19T02:33:11;45.07;;;23.07;;
1204;SDS011;592;48.764;9.174;2022-12-19T02:35:45;53.20;;;24.87;;
1204;SDS011;592;48.764;9.174;2022-12-19T02:38:17;50.60;;;25.60;;
1204;SDS011;592;48.764;9.174;2022-12-19T02:40:49;49.93;;;25.10;;
1204;SDS011;592;48.764;9.174;2022-12-19T02:43:22;49.17;;;24.97;;
1204;SDS011;592;48.764;9.174;2022-12-19T02:45:55;46.40;;;24.67;;
1204;SDS011;592;48.764;9.174;2022-12-19T02:48:22;47.23;;;24.37;;
1204;SDS011;592;48.764;9.174;2022-12-19T02:50:50;48.60;;;26.80;;
1204;SDS011;592;48.764;9.174;2022-12-19T02:53:17;47.40;;;24.00;;
1204;SDS011;592;48.764;9.174;2022-12-19T02:55:46;45.17;;;25.00;;
1204;SDS011;592;48.764;9.174;2022-12-19T02:58:42;50.80;;;25.33;;
1204;SDS011;592;48.764;9.174;2022-12-19T03:01:20;45.40;;;22.73;;
1204;SDS011;592;48.764;9.174;2022-12-19T03:03:58;51.50;;;25.57;;
1204;SDS011;592;48.764;9.174;2022-12-19T03:06:37;47.33;;;24.93;;
1204;SDS011;592;48.764;9.174;2022-12-19T03:09:12;42.00;;;22.20;;
1204;SDS011;592;48.764;9.174;2022-12-19T03:11:44;52.40;;;26.43;;
1204;SDS011;592;48.764;9.174;2022-12-19T03:14:15;50.40;;;25.47;;
1204;SDS011;592;48.764;9.174;2022-12-19T03:16:46;44.27;;;24.33;;
1204;SDS011;592;48.764;9.174;2022-12-19T03:19:13;46.40;;;23.40;;
1204;SDS011;592;48.764;9.174;2022-12-19T03:21:41;42.20;;;22.83;;
1204;SDS011;592;48.764;9.174;2022-12-19T03:24:11;48.97;;;23.47;;
1204;SDS011;592;48.764;9.174;2022-12-19T03:26:40;42.40;;;23.13;;
1204;SDS011;592;48.764;9.174;2022-12-19T03:29:14;43.97;;;24.17;;
1204;SDS011;592;48.764;9.174;2022-12-19T03:31:47;48.13;;;25.97;;
1204;SDS011;592;48.764;9.174;2022-12-19T03:34:15;46.07;;;23.40;;
1204;SDS011;592;48.764;9.174;2022-12-19T03:36:44;43.77;;;24.57;;
1204;SDS011;592;48.764;9.174;2022-12-19T03:39:13;45.80;;;25.77;;
1204;SDS011;592;48.764;9.174;2022-12-19T03:41:42;41.90;;;23.20;;
1204;SDS011;592;48.764;9.174;2022-12-19T03:44:29;43.27;;;21.77;;
1204;SDS011;592;48.764;9.174;2022-12-19T03:47:02;46.10;;;25.53;;
1204;SDS011;592;48.764;9.174;2022-12-19T03:49:36;44.70;;;22.77;;
1204;SDS011;592;48.764;9.174;2022-12-19T03:52:05;46.97;;;23.33;;
1204;SDS011;592;48.764;9.174;2022-12-19T03:54:40;41.40;;;22.50;;
1204;SDS011;592;48.764;9.174;2022-12-19T03:57:14;46.90;;;23.90;;
1204;SDS011;592;48.764;9.174;2022-12-19T03:59:45;41.17;;;22.00;;
1204;SDS011;592;48.764;9.174;2022-12-19T04:02:16;36.47;;;20.53;;
1204;SDS011;592;48.764;9.174;2022-12-19T04:04:45;42.83;;;22.13;;
1204;SDS011;592;48.764;9.174;2022-12-19T04:07:15;43.03;;;20.63;;
1204;SDS011;592;48.764;9.174;2022-12-19T04:09:43;42.33;;;21.60;;
1204;SDS011;592;48.764;9.174;2022-12-19T04:12:13;40.57;;;22.83;;
1204;SDS011;592;48.764;9.174;2022-12-19T04:14:42;39.30;;;20.60;;
1204;SDS011;592;48.764;9.174;2022-12-19T04:17:12;41.83;;;22.10;;
1204;SDS011;592;48.764;9.174;2022-12-19T04:19:47;44.67;;;22.10;;
1204;SDS011;592;48.764;9.174;2022-12-19T04:22:21;42.23;;;22.70;;
1204;SDS011;592;48.764;9.174;2022-12-19T04:24:52;41.03;;;19.57;;
1204;SDS011;592;48.764;9.174;2022-12-19T04:27:21;42.23;;;20.90;;
1204;SDS011;592;48.764;9.174;2022-12-19T04:29:49;38.70;;;19.83;;
1204;SDS011;592;48.764;9.174;2022-12-19T04:32:21;43.83;;;20.50;;
1204;SDS011;592;48.764;9.174;2022-12-19T04:34:50;41.33;;;21.73;;
1204;SDS011;592;48.764;9.174;2022-12-19T04:37:17;41.10;;;21.17;;
1204;SDS011;592;48.764;9.174;2022-12-19T04:39:44;41.40;;;22.00;;
1204;SDS011;592;48.764;9.174;2022-12-19T04:42:11;41.10;;;21.67;;
1204;SDS011;592;48.764;9.174;2022-12-19T04:44:37;38.93;;;19.63;;
1204;SDS011;592;48.764;9.174;2022-12-19T04:47:04;37.67;;;20.43;;
1204;SDS011;592;48.764;9.174;2022-12-19T04:49:32;32.53;;;18.10;;
1204;SDS011;592;48.764;9.174;2022-12-19T04:51:59;41.90;;;21.83;;
1204;SDS011;592;48.764;9.174;2022-12-19T04:54:26;37.90;;;20.10;;
1204;SDS011;592;48.764;9.174;2022-12-19T04:56:52;37.83;;;21.20;;
1204;SDS011;592;48.764;9.174;2022-12-19T04:59:19;38.40;;;20.60;;
1204;SDS011;592;48.764;9.174;2022-12-19T05:01:46;39.67;;;21.97;;
1204;SDS011;592;48.764;9.174;2022-12-19T05:04:12;40.90;;;22.90;;
1204;SDS011;592;48.764;9.174;2022-12-19T05:06:40;38.07;;;20.63;;
1204;SDS011;592;48.764;9.174;2022-12-19T05:09:08;37.27;;;20.77;;
1204;SDS011;592;48.764;9.174;2022-12-19T05:11:36;39.90;;;20.30;;
1204;SDS011;592;48.764;9.174;2022-12-19T05:14:02;38.30;;;19.30;;
1204;SDS011;592;48.764;9.174;2022-12-19T05:16:29;37.30;;;19.67;;
1204;SDS011;592;48.764;9.174;2022-12-19T05:18:56;36.27;;;19.47;;
1204;SDS011;592;48.764;9.174;2022-12-19T05:21:23;37.07;;;18.77;;
1204;SDS011;592;48.764;9.174;2022-12-19T05:23:51;38.00;;;20.70;;
1204;SDS011;592;48.764;9.174;2022-12-19T05:26:18;30.60;;;17.43;;
1204;SDS011;592;48.764;9.174;2022-12-19T05:28:45;37.60;;;20.23;;
1204;SDS011;592;48.764;9.174;2022-12-19T05:31:13;34.93;;;19.40;;
1204;SDS011;592;48.764;9.174;2022-12-19T05:33:41;38.57;;;20.00;;
1204;SDS011;592;48.764;9.174;2022-12-19T05:36:09;36.30;;;19.37;;
1204;SDS011;592;48.764;9.174;2022-12-19T05:38:37;36.30;;;19.47;;
1204;SDS011;592;48.764;9.174;2022-12-19T05:41:09;36.37;;;19.60;;
1204;SDS011;592;48.764;9.174;2022-12-19T05:43:37;34.97;;;18.90;;
1204;SDS011;592;48.764;9.174;2022-12-19T05:46:04;37.10;;;18.87;;
1204;SDS011;592;48.764;9.174;2022-12-19T05:48:31;34.97;;;18.97;;
1204;SDS011;592;48.764;9.174;2022-12-19T05:50:58;33.00;;;18.87;;
1204;SDS011;592;48.764;9.174;2022-12-19T05:53:25;37.90;;;18.93;;
1204;SDS011;592;48.764;9.174;2022-12-19T05:56:01;38.83;;;18.57;;
1204;SDS011;592;48.764;9.174;2022-12-19T05:58:30;40.60;;;19.23;;
1204;SDS011;592;48.764;9.174;2022-12-19T06:01:00;35.13;;;18.40;;
1204;SDS011;592;48.764;9.174;2022-12-19T06:03:28;34.33;;;17.30;;
1204;SDS011;592;48.764;9.174;2022-12-19T06:05:54;35.07;;;18.30;;
1204;SDS011;592;48.764;9.174;2022-12-19T06:08:21;36.20;;;19.30;;
1204;SDS011;592;48.764;9.174;2022-12-19T06:10:48;36.23;;;19.10;;
1204;SDS011;592;48.764;9.174;2022-12-19T06:13:15;33.60;;;16.70;;
1204;SDS011;592;48.764;9.174;2022-12-19T06:15:43;34.10;;;18.70;;
1204;SDS011;592;48.764;9.174;2022-12-19T06:18:10;34.37;;;18.37;;
1204;SDS011;592;48.764;9.174;2022-12-19T06:20:36;36.27;;;18.47;;
1204;SDS011;592;48.764;9.174;2022-12-19T06:23:03;38.47;;;19.73;;
1204;SDS011;592;48.764;9.174;2022-12-19T06:25:30;34.90;;;19.00;;
1204;SDS011;592;48.764;9.174;2022-12-19T06:27:56;34.50;;;17.80;;
1204;SDS011;592;48.764;9.174;2022-12-19T06:30:23;40.60;;;18.20;;
1204;SDS011;592;48.764;9.174;2022-12-19T06:32:51;37.73;;;18.73;;
1204;SDS011;592;48.764;9.174;2022-12-19T06:35:18;37.97;;;19.53;;
1204;SDS011;592;48.764;9.174;2022-12-19T06:37:47;33.50;;;17.77;;
1204;SDS011;592;48.764;9.174;2022-12-19T06:40:13;31.47;;;17.10;;
1204;SDS011;592;48.764;9.174;2022-12-19T06:43:00;30.37;;;16.93;;
1204;SDS011;592;48.764;9.174;2022-12-19T06:45:26;34.70;;;17.83;;
1204;SDS011;592;48.764;9.174;2022-12-19T06:47:55;32.47;;;17.17;;
1204;SDS011;592;48.764;9.174;2022-12-19T06:50:21;33.20;;;17.00;;
1204;SDS011;592;48.764;9.174;2022-12-19T06:52:49;32.37;;;17.20;;
1204;SDS011;592;48.764;9.174;2022-12-19T06:55:16;35.30;;;16.83;;
1204;SDS011;592;48.764;9.174;2022-12-19T06:57:43;35.17;;;17.87;;
1204;SDS011;592;48.764;9.174;2022-12-19T07:00:11;29.20;;;17.13;;
1204;SDS011;592;48.764;9.174;2022-12-19T07:02:38;28.00;;;15.80;;
1204;SDS011;592;48.764;9.174;2022-12-19T07:05:10;32.27;;;17.10;;
1204;SDS011;592;48.764;9.174;2022-12-19T07:07:38;34.93;;;17.83;;
1204;SDS011;592;48.764;9.174;2022-12-19T07:10:05;26.87;;;15.80;;
1204;SDS011;592;48.764;9.174;2022-12-19T07:12:33;30.97;;;17.20;;
1204;SDS011;592;48.764;9.174;2022-12-19T07:15:00;30.80;;;16.17;;
1204;SDS011;592;48.764;9.174;2022-12-19T07:17:27;32.10;;;17.90;;
1204;SDS011;592;48.764;9.174;2022-12-19T07:19:55;29.83;;;16.70;;
1204;SDS011;592;48.764;9.174;2022-12-19T07:22:25;28.80;;;15.57;;
1204;SDS011;592;48.764;9.174;2022-12-19T07:24:58;29.80;;;15.90;;
1204;SDS011;592;48.764;9.174;2022-12-19T07:27:28;34.73;;;15.73;;
1204;SDS011;592;48.764;9.174;2022-12-19T07:29:55;31.20;;;16.60;;
1204;SDS011;592;48.764;9.174;2022-12-19T07:32:21;27.80;;;15.60;;
1204;SDS011;592;48.764;9.174;2022-12-19T07:34:48;35.57;;;16.60;;
1204;SDS011;592;48.764;9.174;2022-12-19T07:37:15;25.60;;;14.30;;
1204;SDS011;592;48.764;9.174;2022-12-19T07:39:43;33.63;;;16.93;;
1204;SDS011;592;48.764;9.174;2022-12-19T07:42:10;33.90;;;17.30;;
1204;SDS011;592;48.764;9.174;2022-12-19T07:44:36;31.73;;;15.97;;
1204;SDS011;592;48.764;9.174;2022-12-19T07:47:03;35.80;;;17.13;;
1204;SDS011;592;48.764;9.174;2022-12-19T07:49:30;34.20;;;16.90;;
1204;SDS011;592;48.764;9.174;2022-12-19T07:51:57;29.20;;;16.73;;
1204;SDS011;592;48.764;9.174;2022-12-19T07:54:24;28.10;;;14.77;;
1204;SDS011;592;48.764;9.174;2022-12-19T07:56:52;29.87;;;15.00;;
1204;SDS011;592;48.764;9.174;2022-12-19T07:59:18;27.20;;;15.10;;
1204;SDS011;592;48.764;9.174;2022-12-19T08:01:45;26.43;;;14.17;;
1204;SDS011;592;48.764;9.174;2022-12-19T08:04:12;28.73;;;16.27;;
1204;SDS011;592;48.764;9.174;2022-12-19T08:06:39;26.27;;;15.80;;
1204;SDS011;592;48.764;9.174;2022-12-19T08:09:05;28.97;;;16.03;;
1204;SDS011;592;48.764;9.174;2022-12-19T08:11:32;28.13;;;15.93;;
1204;SDS011;592;48.764;9.174;2022-12-19T08:14:00;26.07;;;14.40;;
1204;SDS011;592;48.764;9.174;2022-12-19T08:16:27;32.17;;;15.63;;
1204;SDS011;592;48.764;9.174;2022-12-19T08:18:54;27.00;;;14.60;;
1204;SDS011;592;48.764;9.174;2022-12-19T08:21:21;35.13;;;15.87;;
1204;SDS011;592;48.764;9.174;2022-12-19T08:23:48;30.37;;;15.17;;
1204;SDS011;592;48.764;9.174;2022-12-19T08:26:16;28.40;;;15.80;;
1204;SDS011;592;48.764;9.174;2022-12-19T08:28:48;33.97;;;16.70;;
1204;SDS011;592;48.764;9.174;2022-12-19T08:31:17;29.90;;;16.17;;
1204;SDS011;592;48.764;9.174;2022-12-19T08:33:44;24.00;;;12.90;;
1204;SDS011;592;48.764;9.174;2022-12-19T08:36:12;23.80;;;12.17;;
1204;SDS011;592;48.764;9.174;2022-12-19T08:38:40;23.00;;;12.53;;
1204;SDS011;592;48.764;9.174;2022-12-19T08:41:07;29.70;;;13.47;;
1204;SDS011;592;48.764;9.174;2022-12-19T08:43:35;24.80;;;14.47;;
1204;SDS011;592;48.764;9.174;2022-12-19T08:46:02;32.60;;;13.53;;
1204;SDS011;592;48.764;9.174;2022-12-19T08:48:33;24.93;;;13.83;;
1204;SDS011;592;48.764;9.174;2022-12-19T08:51:02;25.87;;;14.33;;
1204;SDS011;592;48.764;9.174;2022-12-19T08:53:30;24.37;;;12.60;;
1204;SDS011;592;48.764;9.174;2022-12-19T08:56:00;25.33;;;12.73;;
1204;SDS011;592;48.764;9.174;2022-12-19T08:58:31;20.93;;;11.17;;
1204;SDS011;592;48.764;9.174;2022-12-19T09:00:59;22.30;;;12.00;;
1204;SDS011;592;48.764;9.174;2022-12-19T09:03:26;24.63;;;12.50;;
1204;SDS011;592;48.764;9.174;2022-12-19T09:05:57;26.77;;;12.93;;
1204;SDS011;592;48.764;9.174;2022-12-19T09:08:25;26.87;;;14.37;;
1204;SDS011;592;48.764;9.174;2022-12-19T09:10:56;32.30;;;14.23;;
1204;SDS011;592;48.764;9.174;2022-12-19T09:13:25;24.87;;;13.10;;
1204;SDS011;592;48.764;9.174;2022-12-19T09:15:57;20.60;;;11.00;;
1204;SDS011;592;48.764;9.174;2022-12-19T09:18:25;24.50;;;12.67;;
1204;SDS011;592;48.764;9.174;2022-12-19T09:20:52;23.37;;;13.10;;
1204;SDS011;592;48.764;9.174;2022-12-19T09:23:21;22.43;;;12.63;;
1204;SDS011;592;48.764;9.174;2022-12-19T09:25:48;22.17;;;13.10;;
1204;SDS011;592;48.764;9.174;2022-12-19T09:28:15;25.43;;;13.40;;
1204;SDS011;592;48.764;9.174;2022-12-19T09:30:42;23.40;;;12.60;;
1204;SDS011;592;48.764;9.174;2022-12-19T09:33:09;22.43;;;12.57;;
1204;SDS011;592;48.764;9.174;2022-12-19T09:35:36;25.13;;;13.77;;
1204;SDS011;592;48.764;9.174;2022-12-19T09:38:03;25.63;;;12.87;;
1204;SDS011;592;48.764;9.174;2022-12-19T09:40:41;21.57;;;11.73;;
1204;SDS011;592;48.764;9.174;2022-12-19T09:43:19;23.67;;;12.97;;
1204;SDS011;592;48.764;9.174;2022-12-19T09:45:59;22.87;;;12.80;;
1204;SDS011;592;48.764;9.174;2022-12-19T09:48:32;24.20;;;14.60;;
1204;SDS011;592;48.764;9.174;2022-12-19T09:50:59;25.13;;;15.00;;
1204;SDS011;592;48.764;9.174;2022-12-19T09:53:31;25.10;;;13.87;;
1204;SDS011;592;48.764;9.174;2022-12-19T09:56:03;26.20;;;14.67;;
1204;SDS011;592;48.764;9.174;2022-12-19T09:58:40;23.20;;;13.17;;
1204;SDS011;592;48.764;9.174;2022-12-19T10:01:12;20.23;;;13.10;;
1204;SDS011;592;48.764;9.174;2022-12-19T10:03:44;26.30;;;13.87;;
1204;SDS011;592;48.764;9.174;2022-12-19T10:06:16;22.60;;;14.23;;
1204;SDS011;592;48.764;9.174;2022-12-19T10:08:44;24.30;;;12.43;;
1204;SDS011;592;48.764;9.174;2022-12-19T10:11:21;23.10;;;13.53;;
1204;SDS011;592;48.764;9.174;2022-12-19T10:14:01;25.10;;;14.40;;
1204;SDS011;592;48.764;9.174;2022-12-19T10:16:42;23.83;;;13.97;;
1204;SDS011;592;48.764;9.174;2022-12-19T10:19:24;23.30;;;14.63;;
1204;SDS011;592;48.764;9.174;2022-12-19T10:22:03;24.80;;;14.50;;
1204;SDS011;592;48.764;9.174;2022-12-19T10:24:48;24.37;;;14.17;;
1204;SDS011;592;48.764;9.174;2022-12-19T10:27:28;25.07;;;12.80;;
1204;SDS011;592;48.764;9.174;2022-12-19T10:30:01;27.90;;;15.17;;
1204;SDS011;592;48.764;9.174;2022-12-19T10:32:39;24.27;;;13.67;;
1204;SDS011;592;48.764;9.174;2022-12-19T10:35:15;25.60;;;13.90;;
1204;SDS011;592;48.764;9.174;2022-12-19T10:37:44;21.90;;;13.10;;
1204;SDS011;592;48.764;9.174;2022-12-19T10:40:17;23.70;;;13.40;;
1204;SDS011;592;48.764;9.174;2022-12-19T10:42:51;21.90;;;11.90;;
1204;SDS011;592;48.764;9.174;2022-12-19T10:45:22;23.13;;;13.77;;
1204;SDS011;592;48.764;9.174;2022-12-19T10:47:54;22.73;;;12.10;;
1204;SDS011;592;48.764;9.174;2022-12-19T10:50:23;18.53;;;10.80;;
1204;SDS011;592;48.764;9.174;2022-12-19T10:52:53;23.70;;;12.97;;
1204;SDS011;592;48.764;9.174;2022-12-19T10:55:23;23.30;;;13.67;;
1204;SDS011;592;48.764;9.174;2022-12-19T10:57:59;19.17;;;12.60;;
1204;SDS011;592;48.764;9.174;2022-12-19T11:00:35;19.53;;;11.23;;
1204;SDS011;592;48.764;9.174;2022-12-19T11:03:06;19.23;;;12.50;;
1204;SDS011;592;48.764;9.174;2022-12-19T11:05:39;19.47;;;13.13;;
1204;SDS011;592;48.764;9.174;2022-12-19T11:08:12;23.43;;;13.43;;
1204;SDS011;592;48.764;9.174;2022-12-19T11:10:43;22.20;;;12.00;;
1204;SDS011;592;48.764;9.174;2022-12-19T11:13:19;22.23;;;13.30;;
1204;SDS011;592;48.764;9.174;2022-12-19T11:15:47;20.70;;;11.63;;
1204;SDS011;592;48.764;9.174;2022-12-19T11:18:15;21.50;;;12.27;;
1204;SDS011;592;48.764;9.174;2022-12-19T11:20:51;21.30;;;13.07;;
1204;SDS011;592;48.764;9.174;2022-12-19T11:23:19;19.63;;;11.67;;
1204;SDS011;592;48.764;9.174;2022-12-19T11:25:54;18.67;;;11.03;;
1204;SDS011;592;48.764;9.174;2022-12-19T11:28:25;22.37;;;12.57;;
1204;SDS011;592;48.764;9.174;2022-12-19T11:31:01;23.20;;;13.40;;
1204;SDS011;592;48.764;9.174;2022-12-19T11:33:30;26.57;;;13.50;;
1204;SDS011;592;48.764;9.174;2022-12-19T11:35:58;18.40;;;11.60;;
1204;SDS011;592;48.764;9.174;2022-12-19T11:38:35;20.30;;;12.40;;
1204;SDS011;592;48.764;9.174;2022-12-19T11:41:09;19.17;;;12.37;;
1204;SDS011;592;48.764;9.174;2022-12-19T11:43:43;22.23;;;13.13;;
1204;SDS011;592;48.764;9.174;2022-12-19T11:46:21;22.33;;;12.10;;
1204;SDS011;592;48.764;9.174;2022-12-19T11:48:54;19.57;;;11.93;;
1204;SDS011;592;48.764;9.174;2022-12-19T11:51:27;21.53;;;13.00;;
1204;SDS011;592;48.764;9.174;2022-12-19T11:53:59;23.10;;;14.10;;
1204;SDS011;592;48.764;9.174;2022-12-19T11:56:31;22.30;;;12.70;;
1204;SDS011;592;48.764;9.174;2022-12-19T11:59:00;22.20;;;13.93;;
1204;SDS011;592;48.764;9.174;2022-12-19T12:01:50;26.83;;;13.50;;
1204;SDS011;592;48.764;9.174;2022-12-19T12:04:33;23.53;;;13.23;;
1204;SDS011;592;48.764;9.174;2022-12-19T12:07:18;26.33;;;14.40;;
1204;SDS011;592;48.764;9.174;2022-12-19T12:09:46;23.60;;;14.20;;
1204;SDS011;592;48.764;9.174;2022-12-19T12:12:21;23.30;;;13.30;;
1204;SDS011;592;48.764;9.174;2022-12-19T12:17:55;20.60;;;12.70;;
1204;SDS011;592;48.764;9.174;2022-12-19T12:20:29;22.73;;;13.07;;
1204;SDS011;592;48.764;9.174;2022-12-19T12:23:03;20.17;;;13.30;;
1204;SDS011;592;48.764;9.174;2022-12-19T12:25:46;23.30;;;14.00;;
1204;SDS011;592;48.764;9.174;2022-12-19T12:28:37;19.63;;;12.93;;
1204;SDS011;592;48.764;9.174;2022-12-19T12:31:28;24.47;;;13.10;;
1204;SDS011;592;48.764;9.174;2022-12-19T12:34:02;22.40;;;11.83;;
1204;SDS011;592;48.764;9.174;2022-12-19T12:36:41;20.47;;;12.80;;
1204;SDS011;592;48.764;9.174;2022-12-19T12:39:15;18.87;;;10.93;;
1204;SDS011;592;48.764;9.174;2022-12-19T12:41:47;20.97;;;11.67;;
1204;SDS011;592;48.764;9.174;2022-12-19T12:44:29;18.07;;;11.43;;
1204;SDS011;592;48.764;9.174;2022-12-19T12:47:01;19.73;;;12.07;;
1204;SDS011;592;48.764;9.174;2022-12-19T12:49:36;24.13;;;12.97;;
1204;SDS011;592;48.764;9.174;2022-12-19T12:52:06;24.50;;;12.10;;
1204;SDS011;592;48.764;9.174;2022-12-19T12:54:36;17.67;;;11.10;;
1204;SDS011;592;48.764;9.174;2022-12-19T12:57:09;20.70;;;10.83;;
1204;SDS011;592;48.764;9.174;2022-12-19T12:59:43;21.83;;;12.27;;
1204;SDS011;592;48.764;9.174;2022-12-19T13:02:14;21.20;;;13.97;;
1204;SDS011;592;48.764;9.174;2022-12-19T13:04:55;21.00;;;14.53;;
1204;SDS011;592;48.764;9.174;2022-12-19T13:07:27;23.00;;;14.07;;
1204;SDS011;592;48.764;9.174;2022-12-19T13:10:14;19.90;;;11.83;;
1204;SDS011;592;48.764;9.174;2022-12-19T13:15:36;26.00;;;12.17;;
1204;SDS011;592;48.764;9.174;2022-12-19T13:18:27;19.27;;;11.50;;
1204;SDS011;592;48.764;9.174;2022-12-19T13:20:56;22.60;;;10.37;;
1204;SDS011;592;48.764;9.174;2022-12-19T13:29:28;14.10;;;7.83;;
1204;SDS011;592;48.764;9.174;2022-12-19T13:32:07;13.43;;;7.30;;
1204;SDS011;592;48.764;9.174;2022-12-19T13:34:37;15.70;;;8.77;;
1204;SDS011;592;48.764;9.174;2022-12-19T13:37:25;15.30;;;8.63;;
1204;SDS011;592;48.764;9.174;2022-12-19T13:40:00;19.57;;;9.37;;
1204;SDS011;592;48.764;9.174;2022-12-19T13:42:36;16.57;;;9.17;;
1204;SDS011;592;48.764;9.174;2022-12-19T13:45:23;15.13;;;8.93;;
1204;SDS011;592;48.764;9.174;2022-12-19T13:47:53;14.43;;;8.60;;
1204;SDS011;592;48.764;9.174;2022-12-19T13:50:24;16.13;;;9.57;;
1204;SDS011;592;48.764;9.174;2022-12-19T13:52:54;13.77;;;8.23;;
1204;SDS011;592;48.764;9.174;2022-12-19T13:55:22;17.20;;;9.33;;
1204;SDS011;592;48.764;9.174;2022-12-19T13:57:50;13.97;;;7.70;;
1204;SDS011;592;48.764;9.174;2022-12-19T14:00:19;14.60;;;8.60;;
1204;SDS011;592;48.764;9.174;2022-12-19T14:02:54;14.60;;;9.33;;
1204;SDS011;592;48.764;9.174;2022-12-19T14:05:25;16.23;;;9.87;;
1204;SDS011;592;48.764;9.174;2022-12-19T14:07:55;13.87;;;8.67;;
1204;SDS011;592;48.764;9.174;2022-12-19T14:10:24;18.40;;;9.80;;
1204;SDS011;592;48.764;9.174;2022-12-19T14:12:54;15.67;;;10.20;;
1204;SDS011;592;48.764;9.174;2022-12-19T14:15:43;25.23;;;9.33;;
1204;SDS011;592;48.764;9.174;2022-12-19T14:18:15;15.00;;;8.27;;
1204;SDS011;592;48.764;9.174;2022-12-19T14:20:46;15.20;;;9.20;;
1204;SDS011;592;48.764;9.174;2022-12-19T14:23:14;16.20;;;8.77;;
1204;SDS011;592;48.764;9.174;2022-12-19T14:25:41;14.27;;;8.73;;
1204;SDS011;592;48.764;9.174;2022-12-19T14:28:12;17.23;;;9.87;;
1204;SDS011;592;48.764;9.174;2022-12-19T14:30:42;13.20;;;8.53;;
1204;SDS011;592;48.764;9.174;2022-12-19T14:33:12;12.70;;;8.10;;
1204;SDS011;592;48.764;9.174;2022-12-19T14:35:43;14.37;;;9.10;;
1204;SDS011;592;48.764;9.174;2022-12-19T14:38:13;19.33;;;11.80;;
1204;SDS011;592;48.764;9.174;2022-12-19T14:40:42;19.70;;;11.00;;
1204;SDS011;592;48.764;9.174;2022-12-19T14:43:12;15.00;;;9.50;;
1204;SDS011;592;48.764;9.174;2022-12-19T14:46:09;17.40;;;10.10;;
1204;SDS011;592;48.764;9.174;2022-12-19T14:48:44;17.40;;;11.30;;
1204;SDS011;592;48.764;9.174;2022-12-19T14:51:14;19.20;;;11.10;;
1204;SDS011;592;48.764;9.174;2022-12-19T14:56:45;14.10;;;9.70;;
1204;SDS011;592;48.764;9.174;2022-12-19T15:02:01;17.77;;;10.70;;
1204;SDS011;592;48.764;9.174;2022-12-19T15:04:39;14.80;;;9.23;;
1204;SDS011;592;48.764;9.174;2022-12-19T15:07:11;16.43;;;10.83;;
1204;SDS011;592;48.764;9.174;2022-12-19T15:09:43;16.73;;;9.90;;
1204;SDS011;592;48.764;9.174;2022-12-19T15:12:21;16.67;;;10.87;;
1204;SDS011;592;48.764;9.174;2022-12-19T15:15:15;17.90;;;9.17;;
1204;SDS011;592;48.764;9.174;2022-12-19T15:17:44;18.83;;;9.40;;
1204;SDS011;592;48.764;9.174;2022-12-19T15:20:13;15.30;;;9.33;;
1204;SDS011;592;48.764;9.174;2022-12-19T15:22:40;17.17;;;8.63;;
1204;SDS011;592;48.764;9.174;2022-12-19T15:25:11;16.10;;;8.70;;
1204;SDS011;592;48.764;9.174;2022-12-19T15:27:40;18.10;;;10.97;;
1204;SDS011;592;48.764;9.174;2022-12-19T15:30:11;12.73;;;7.20;;
1204;SDS011;592;48.764;9.174;2022-12-19T15:32:41;16.07;;;8.37;;
1204;SDS011;592;48.764;9.174;2022-12-19T15:35:09;15.43;;;9.40;;
1204;SDS011;592;48.764;9.174;2022-12-19T15:37:37;15.00;;;8.90;;
1204;SDS011;592;48.764;9.174;2022-12-19T15:40:04;12.97;;;8.00;;
1204;SDS011;592;48.764;9.174;2022-12-19T15:42:33;22.03;;;10.73;;